Time;durP1;ratioP1;P1;durP2;ratioP2;P2;SDS_P1;SDS_P2;PMS_P1;PMS_P2;Temp;Humidity;BMP_temperature;BMP_pressure;BME280_temperature;BME280_humidity;BME280_pressure;Samples;Min_cycle;Max_cycle;Signal;HPM_P1;HPM_P2
2022/01/03 00:00:45;;;;;;;;;;;12.80;92.60;;;;;;4991657;28;19932;-89
2022/01/03 00:03:13;;;;;;;;;;;12.90;93.00;;;;;;4983801;28;19913;-89
2022/01/03 00:05:40;;;;;;;;;;;12.80;92.70;;;;;;4995578;28;19952;-89
2022/01/03 00:08:07;;;;;;;;;;;12.90;93.00;;;;;;4990735;28;20129;-89
2022/01/03 00:10:34;;;;;;;;;;;12.90;93.40;;;;;;5015678;28;20409;-89
2022/01/03 00:13:02;;;;;;;;;;;12.90;93.50;;;;;;4972183;28;20019;-89
2022/01/03 00:15:29;;;;;;;;;;;12.90;93.70;;;;;;4965763;28;19999;-91
2022/01/03 00:17:56;;;;;;;;;;;12.90;93.30;;;;;;4980457;28;19944;-89
2022/01/03 00:20:25;;;;;;;;;;;12.90;93.30;;;;;;4992337;28;20402;-90
2022/01/03 00:23:06;;;;;;;;;;;12.90;93.10;;;;;;4965358;28;19927;-89
2022/01/03 00:25:37;;;;;;;;;;;12.90;93.40;;;;;;4991608;28;19910;-89
2022/01/03 00:28:14;;;;;;;;;;;12.90;93.10;;;;;;4986997;28;19922;-89
2022/01/03 00:30:43;;;;;;;;;;;12.90;93.20;;;;;;4992202;28;19920;-90
2022/01/03 00:33:11;;;;;;;;;;;12.90;93.00;;;;;;4980088;28;19914;-88
2022/01/03 00:35:38;;;;;;;;;;;12.90;93.10;;;;;;4993666;28;19932;-89
2022/01/03 00:38:09;;;;;;;;;;;12.90;93.30;;;;;;4976361;28;19914;-89
2022/01/03 00:40:37;;;;;;;;;;;12.90;93.30;;;;;;4987480;28;19945;-89
2022/01/03 00:43:04;;;;;;;;;;;12.90;92.90;;;;;;4980594;28;19920;-88
2022/01/03 00:45:31;;;;;;;;;;;12.90;92.60;;;;;;4989932;28;19914;-89
2022/01/03 00:47:58;;;;;;;;;;;12.90;92.60;;;;;;4980769;28;19922;-89
2022/01/03 00:50:25;;;;;;;;;;;12.80;92.70;;;;;;4984518;28;20448;-90
2022/01/03 00:52:52;;;;;;;;;;;12.90;92.70;;;;;;5013310;28;20375;-90
2022/01/03 00:55:19;;;;;;;;;;;12.90;92.90;;;;;;5001612;28;20278;-91
2022/01/03 00:57:46;;;;;;;;;;;12.90;93.00;;;;;;4995113;28;20165;-88
2022/01/03 01:00:13;;;;;;;;;;;12.90;93.00;;;;;;4983988;28;20125;-90
2022/01/03 01:02:45;;;;;;;;;;;12.90;93.00;;;;;;4992583;28;19919;-89
2022/01/03 01:05:12;;;;;;;;;;;12.90;92.70;;;;;;4976412;28;20293;-89
2022/01/03 01:07:39;;;;;;;;;;;12.80;92.60;;;;;;4977389;28;19914;-88
2022/01/03 01:10:06;;;;;;;;;;;12.80;92.90;;;;;;4987797;28;19928;-88
2022/01/03 01:12:35;;;;;;;;;;;12.80;92.80;;;;;;5000976;28;19913;-87
2022/01/03 01:15:02;;;;;;;;;;;12.80;92.60;;;;;;5001673;28;19914;-90
2022/01/03 01:17:29;;;;;;;;;;;12.70;92.90;;;;;;4994240;28;19914;-89
2022/01/03 01:19:58;;;;;;;;;;;12.80;92.90;;;;;;4977932;28;20597;-88
2022/01/03 01:22:25;;;;;;;;;;;12.80;92.70;;;;;;4987924;28;19924;-89
2022/01/03 01:27:48;;;;;;;;;;;12.80;93.20;;;;;;4995244;28;19919;-89
2022/01/03 01:30:17;;;;;;;;;;;12.70;93.00;;;;;;5006860;28;19917;-89
2022/01/03 01:33:03;;;;;;;;;;;12.80;93.10;;;;;;4985348;28;19921;-90
2022/01/03 01:35:52;;;;;;;;;;;12.80;92.70;;;;;;4975872;28;19932;-89
2022/01/03 01:38:21;;;;;;;;;;;12.80;92.80;;;;;;5003828;28;19924;-90
2022/01/03 01:40:51;;;;;;;;;;;12.80;93.10;;;;;;4997113;28;19944;-90
2022/01/03 01:43:19;;;;;;;;;;;12.80;93.30;;;;;;4986294;28;19913;-89
2022/01/03 01:45:47;;;;;;;;;;;12.80;93.30;;;;;;4978510;28;20786;-89
2022/01/03 01:48:15;;;;;;;;;;;12.80;93.00;;;;;;4970615;28;19914;-90
2022/01/03 01:50:47;;;;;;;;;;;12.80;93.20;;;;;;4979119;28;20042;-90
2022/01/03 01:53:18;;;;;;;;;;;12.80;92.80;;;;;;4998240;28;19941;-89
2022/01/03 01:55:46;;;;;;;;;;;12.80;92.60;;;;;;4987860;28;20113;-89
2022/01/03 01:58:29;;;;;;;;;;;12.90;93.10;;;;;;4997154;28;19913;-88
2022/01/03 02:01:15;;;;;;;;;;;12.90;93.00;;;;;;4994339;28;19921;-88
2022/01/03 02:03:58;;;;;;;;;;;12.90;93.00;;;;;;4964819;28;19913;-89
2022/01/03 02:06:43;;;;;;;;;;;12.90;93.20;;;;;;4997949;28;19914;-89
2022/01/03 02:09:17;;;;;;;;;;;12.90;93.40;;;;;;4988177;28;20422;-89
2022/01/03 02:11:49;;;;;;;;;;;12.80;93.50;;;;;;4963012;28;19928;-88
2022/01/03 02:14:16;;;;;;;;;;;12.80;93.20;;;;;;4991238;28;19920;-88
2022/01/03 02:16:43;;;;;;;;;;;12.80;93.10;;;;;;4979308;28;20129;-89
2022/01/03 02:19:11;;;;;;;;;;;12.80;93.10;;;;;;4988913;28;19933;-89
2022/01/03 02:21:38;;;;;;;;;;;12.80;92.50;;;;;;4989080;28;19918;-88
2022/01/03 02:24:06;;;;;;;;;;;12.80;92.60;;;;;;4974233;28;19925;-89
2022/01/03 02:26:33;;;;;;;;;;;12.80;92.50;;;;;;4994975;28;19920;-91
2022/01/03 02:29:00;;;;;;;;;;;12.80;92.60;;;;;;5006727;28;19940;-87
2022/01/03 02:31:27;;;;;;;;;;;12.80;93.10;;;;;;4996712;28;19917;-90
2022/01/03 02:33:54;;;;;;;;;;;12.80;93.10;;;;;;4977769;28;20671;-90
2022/01/03 02:36:21;;;;;;;;;;;12.80;92.80;;;;;;4996016;28;19921;-88
2022/01/03 02:38:48;;;;;;;;;;;12.80;92.50;;;;;;4973681;28;19940;-89
2022/01/03 02:41:15;;;;;;;;;;;12.80;92.40;;;;;;4997078;28;20375;-89
2022/01/03 02:43:41;;;;;;;;;;;12.70;92.60;;;;;;4970991;28;19924;-89
2022/01/03 02:46:09;;;;;;;;;;;12.80;93.00;;;;;;4974799;28;19913;-87
2022/01/03 02:48:36;;;;;;;;;;;12.70;92.80;;;;;;4996028;28;19917;-88
2022/01/03 02:51:03;;;;;;;;;;;12.80;92.30;;;;;;4971696;28;19914;-89
2022/01/03 02:53:30;;;;;;;;;;;12.80;92.80;;;;;;4983756;28;20370;-89
2022/01/03 02:55:57;;;;;;;;;;;12.70;92.10;;;;;;4977309;28;19924;-88
2022/01/03 02:58:24;;;;;;;;;;;12.70;92.10;;;;;;4979619;28;20282;-89
2022/01/03 03:00:52;;;;;;;;;;;12.70;92.30;;;;;;4970187;28;19913;-89
2022/01/03 03:03:20;;;;;;;;;;;12.70;92.30;;;;;;4982380;28;19940;-89
2022/01/03 03:05:50;;;;;;;;;;;12.60;91.90;;;;;;4952605;28;19914;-89
2022/01/03 03:08:17;;;;;;;;;;;12.70;92.40;;;;;;4929879;28;19921;-88
2022/01/03 03:10:44;;;;;;;;;;;12.70;92.70;;;;;;4978165;28;19922;-89
2022/01/03 03:13:11;;;;;;;;;;;12.60;92.20;;;;;;4975829;28;19921;-89
2022/01/03 03:15:38;;;;;;;;;;;12.60;92.90;;;;;;4962109;28;20390;-87
2022/01/03 03:18:05;;;;;;;;;;;12.70;92.70;;;;;;4998438;28;19924;-88
2022/01/03 03:20:32;;;;;;;;;;;12.70;91.90;;;;;;4962876;28;20233;-88
2022/01/03 03:22:59;;;;;;;;;;;12.70;92.40;;;;;;4994031;28;20052;-89
2022/01/03 03:25:34;;;;;;;;;;;12.70;92.30;;;;;;4971123;28;20426;-87
2022/01/03 03:28:06;;;;;;;;;;;12.70;92.40;;;;;;4980555;28;20099;-88
2022/01/03 03:30:36;;;;;;;;;;;12.70;92.30;;;;;;4979142;28;20429;-88
2022/01/03 03:33:13;;;;;;;;;;;12.80;92.90;;;;;;4994808;28;19924;-87
2022/01/03 03:35:41;;;;;;;;;;;12.80;92.70;;;;;;4969586;28;19927;-90
2022/01/03 03:38:08;;;;;;;;;;;12.80;92.60;;;;;;4979031;28;19917;-87
2022/01/03 03:40:35;;;;;;;;;;;12.80;92.70;;;;;;4986164;28;19920;-90
2022/01/03 03:43:02;;;;;;;;;;;12.80;92.80;;;;;;4964717;28;19926;-89
2022/01/03 03:45:29;;;;;;;;;;;12.80;92.90;;;;;;4965859;28;19913;-90
2022/01/03 03:47:57;;;;;;;;;;;12.80;93.20;;;;;;4969166;28;19924;-89
2022/01/03 03:50:24;;;;;;;;;;;12.80;92.60;;;;;;4959052;28;19913;-89
2022/01/03 03:52:51;;;;;;;;;;;12.80;92.60;;;;;;4966274;28;20386;-88
2022/01/03 03:55:18;;;;;;;;;;;12.80;92.90;;;;;;4974818;28;19940;-88
2022/01/03 03:57:45;;;;;;;;;;;12.80;92.30;;;;;;4965561;28;19914;-89
2022/01/03 04:00:15;;;;;;;;;;;12.70;92.20;;;;;;4965163;28;19920;-89
2022/01/03 04:02:42;;;;;;;;;;;12.70;92.20;;;;;;4954006;28;19921;-89
2022/01/03 04:05:09;;;;;;;;;;;12.70;92.60;;;;;;4975756;28;19913;-88
2022/01/03 04:07:36;;;;;;;;;;;12.70;92.50;;;;;;4967269;28;20311;-88
2022/01/03 04:10:04;;;;;;;;;;;12.70;92.00;;;;;;4977863;28;19918;-88
2022/01/03 04:12:31;;;;;;;;;;;12.70;92.50;;;;;;4964000;28;19920;-88
2022/01/03 04:14:58;;;;;;;;;;;12.60;92.50;;;;;;4997612;28;20004;-89
2022/01/03 04:17:24;;;;;;;;;;;12.60;92.40;;;;;;4973437;28;19913;-90
2022/01/03 04:19:51;;;;;;;;;;;12.60;92.40;;;;;;4954430;28;20114;-90
2022/01/03 04:22:18;;;;;;;;;;;12.60;92.90;;;;;;4969025;28;19939;-89
2022/01/03 04:24:45;;;;;;;;;;;12.60;92.80;;;;;;4969250;28;20303;-88
2022/01/03 04:27:12;;;;;;;;;;;12.60;92.50;;;;;;4966390;28;19914;-89
2022/01/03 04:29:39;;;;;;;;;;;12.60;92.50;;;;;;4953308;28;19914;-88
2022/01/03 04:32:06;;;;;;;;;;;12.50;92.70;;;;;;4970635;28;19917;-89
2022/01/03 04:34:32;;;;;;;;;;;12.50;92.30;;;;;;4973354;28;19922;-89
2022/01/03 04:36:59;;;;;;;;;;;12.50;92.50;;;;;;4995528;28;20023;-89
2022/01/03 04:39:26;;;;;;;;;;;12.50;92.00;;;;;;4988269;28;19920;-89
2022/01/03 04:41:53;;;;;;;;;;;12.50;92.70;;;;;;4991051;28;19933;-88
2022/01/03 04:44:20;;;;;;;;;;;12.50;93.00;;;;;;4983369;28;19920;-88
2022/01/03 04:46:47;;;;;;;;;;;12.50;92.30;;;;;;4989764;28;20190;-88
2022/01/03 04:49:14;;;;;;;;;;;12.50;92.30;;;;;;4990159;28;19926;-88
2022/01/03 04:51:41;;;;;;;;;;;12.50;92.40;;;;;;4970952;28;19928;-89
2022/01/03 04:54:07;;;;;;;;;;;12.50;92.60;;;;;;4987823;28;19914;-90
2022/01/03 04:56:34;;;;;;;;;;;12.50;92.90;;;;;;4989226;28;19913;-89
2022/01/03 04:59:02;;;;;;;;;;;12.50;93.50;;;;;;4981814;28;21023;-88
2022/01/03 05:01:29;;;;;;;;;;;12.60;93.60;;;;;;5010394;28;20383;-89
2022/01/03 05:03:56;;;;;;;;;;;12.60;92.90;;;;;;4990750;28;20095;-89
2022/01/03 05:06:23;;;;;;;;;;;12.60;93.40;;;;;;4978987;28;19928;-89
2022/01/03 05:08:49;;;;;;;;;;;12.60;93.00;;;;;;4987744;28;20047;-89
2022/01/03 05:11:16;;;;;;;;;;;12.60;92.70;;;;;;4997022;28;19920;-88
2022/01/03 05:13:43;;;;;;;;;;;12.60;92.20;;;;;;4985901;28;19996;-89
2022/01/03 05:16:10;;;;;;;;;;;12.60;92.80;;;;;;4988153;28;19913;-89
2022/01/03 05:18:37;;;;;;;;;;;12.70;93.20;;;;;;4984433;28;19928;-89
2022/01/03 05:21:04;;;;;;;;;;;12.60;93.30;;;;;;4978194;28;20104;-88
2022/01/03 05:23:31;;;;;;;;;;;12.70;92.80;;;;;;4981179;28;19917;-88
2022/01/03 05:25:58;;;;;;;;;;;12.70;92.90;;;;;;4974872;28;19914;-89
2022/01/03 05:28:25;;;;;;;;;;;12.70;92.80;;;;;;4985219;28;19918;-90
2022/01/03 05:30:52;;;;;;;;;;;12.70;92.90;;;;;;4981837;28;19961;-89
2022/01/03 05:33:19;;;;;;;;;;;12.70;93.10;;;;;;4989668;28;20313;-89
2022/01/03 05:35:46;;;;;;;;;;;12.70;92.80;;;;;;4989758;28;20025;-89
2022/01/03 05:38:13;;;;;;;;;;;12.70;93.00;;;;;;4980474;28;19913;-88
2022/01/03 05:40:40;;;;;;;;;;;12.70;92.80;;;;;;4978112;28;19921;-89
2022/01/03 05:43:10;;;;;;;;;;;12.70;92.00;;;;;;4992782;28;20386;-89
2022/01/03 05:45:37;;;;;;;;;;;12.70;92.30;;;;;;4980580;28;19919;-88
2022/01/03 05:48:05;;;;;;;;;;;12.70;93.00;;;;;;5004820;28;20365;-89
2022/01/03 05:50:32;;;;;;;;;;;12.70;92.80;;;;;;4992711;28;19914;-89
2022/01/03 05:52:59;;;;;;;;;;;12.70;93.00;;;;;;4982353;28;19918;-88
2022/01/03 05:55:26;;;;;;;;;;;12.70;93.00;;;;;;4979072;28;19928;-88
2022/01/03 05:57:52;;;;;;;;;;;12.70;92.80;;;;;;4995967;28;20063;-89
2022/01/03 06:00:21;;;;;;;;;;;12.60;91.80;;;;;;4990760;28;20285;-89
2022/01/03 06:02:53;;;;;;;;;;;12.60;92.30;;;;;;4961706;28;19922;-90
2022/01/03 06:05:41;;;;;;;;;;;12.60;92.30;;;;;;4994305;28;19914;-88
2022/01/03 06:08:08;;;;;;;;;;;12.70;92.80;;;;;;4992417;28;20124;-88
2022/01/03 06:10:38;;;;;;;;;;;12.60;92.90;;;;;;4975884;28;20023;-88
2022/01/03 06:13:05;;;;;;;;;;;12.60;91.50;;;;;;4985665;28;20602;-89
2022/01/03 06:15:32;;;;;;;;;;;12.60;92.20;;;;;;4982173;28;20379;-88
2022/01/03 06:17:59;;;;;;;;;;;12.70;92.80;;;;;;4965786;28;20294;-87
2022/01/03 06:20:26;;;;;;;;;;;12.60;92.90;;;;;;4988247;28;19923;-88
2022/01/03 06:22:52;;;;;;;;;;;12.70;92.60;;;;;;5001975;28;19914;-88
2022/01/03 06:25:19;;;;;;;;;;;12.60;92.70;;;;;;4976593;28;19922;-87
2022/01/03 06:27:46;;;;;;;;;;;12.60;92.10;;;;;;4989320;28;21307;-89
2022/01/03 06:30:13;;;;;;;;;;;12.50;91.90;;;;;;4988081;28;19914;-89
2022/01/03 06:32:40;;;;;;;;;;;12.50;92.20;;;;;;4963775;28;19921;-89
2022/01/03 06:35:07;;;;;;;;;;;12.50;91.90;;;;;;4994972;28;19921;-88
2022/01/03 06:37:34;;;;;;;;;;;12.50;92.60;;;;;;4984594;28;20106;-88
2022/01/03 06:40:01;;;;;;;;;;;12.40;92.30;;;;;;4983267;28;19921;-88
2022/01/03 06:42:28;;;;;;;;;;;12.40;92.20;;;;;;4993548;28;19914;-87
2022/01/03 06:44:55;;;;;;;;;;;12.40;92.30;;;;;;4983671;28;19931;-88
2022/01/03 06:47:22;;;;;;;;;;;12.30;92.10;;;;;;4984255;28;19922;-89
2022/01/03 06:49:49;;;;;;;;;;;12.30;92.90;;;;;;4982374;28;19914;-89
2022/01/03 06:52:15;;;;;;;;;;;12.30;92.70;;;;;;4991332;28;19913;-89
2022/01/03 06:54:42;;;;;;;;;;;12.30;93.00;;;;;;4987902;28;20092;-88
2022/01/03 06:57:09;;;;;;;;;;;12.30;93.50;;;;;;4985779;28;19913;-88
2022/01/03 06:59:36;;;;;;;;;;;12.30;93.60;;;;;;4989912;28;21947;-87
2022/01/03 07:02:04;;;;;;;;;;;12.30;92.70;;;;;;4997444;28;19941;-89
2022/01/03 07:04:31;;;;;;;;;;;12.30;93.50;;;;;;4973712;28;19926;-88
2022/01/03 07:06:58;;;;;;;;;;;12.30;92.70;;;;;;5017596;28;20309;-88
2022/01/03 07:09:25;;;;;;;;;;;12.30;92.70;;;;;;4990984;28;20374;-88
2022/01/03 07:11:52;;;;;;;;;;;12.30;92.70;;;;;;4988975;28;19922;-89
2022/01/03 07:19:35;;;;;;;;;;;12.40;93.40;;;;;;4983095;28;19944;-89
2022/01/03 07:22:05;;;;;;;;;;;12.50;93.20;;;;;;4985522;28;19914;-88
2022/01/03 07:24:32;;;;;;;;;;;12.40;93.30;;;;;;4990312;28;20014;-89
2022/01/03 07:27:07;;;;;;;;;;;12.50;92.90;;;;;;4984309;28;19922;-88
2022/01/03 07:29:34;;;;;;;;;;;12.50;93.10;;;;;;5009896;28;19936;-89
2022/01/03 07:32:01;;;;;;;;;;;12.50;93.50;;;;;;4989781;28;20294;-89
2022/01/03 07:34:28;;;;;;;;;;;12.50;93.50;;;;;;4980759;28;19927;-89
2022/01/03 07:36:55;;;;;;;;;;;12.50;93.30;;;;;;4965854;28;19923;-89
2022/01/03 07:39:22;;;;;;;;;;;12.50;93.00;;;;;;4998102;28;20024;-87
2022/01/03 07:41:49;;;;;;;;;;;12.50;93.50;;;;;;4999174;28;19940;-87
2022/01/03 07:44:16;;;;;;;;;;;12.50;92.90;;;;;;4985444;28;19921;-89
2022/01/03 07:46:43;;;;;;;;;;;12.50;93.20;;;;;;4987166;28;20271;-88
2022/01/03 07:49:10;;;;;;;;;;;12.50;93.50;;;;;;4978163;28;19920;-88
2022/01/03 07:51:36;;;;;;;;;;;12.50;92.50;;;;;;4987066;28;20410;-87
2022/01/03 07:54:03;;;;;;;;;;;12.50;92.70;;;;;;4987877;28;19920;-88
2022/01/03 07:56:31;;;;;;;;;;;12.50;92.60;;;;;;4992484;28;19913;-89
2022/01/03 07:58:58;;;;;;;;;;;12.50;93.00;;;;;;4986901;28;20421;-88
2022/01/03 08:01:25;;;;;;;;;;;12.50;93.00;;;;;;4991037;28;20024;-89
2022/01/03 08:03:52;;;;;;;;;;;12.50;93.10;;;;;;4974662;28;19921;-89
2022/01/03 08:06:20;;;;;;;;;;;12.50;93.20;;;;;;4996106;28;19918;-89
2022/01/03 08:08:47;;;;;;;;;;;12.50;92.80;;;;;;4986171;28;19928;-89
2022/01/03 08:11:13;;;;;;;;;;;12.50;92.50;;;;;;4986682;28;19914;-90
2022/01/03 08:13:40;;;;;;;;;;;12.50;92.30;;;;;;4995695;28;20333;-88
2022/01/03 08:16:08;;;;;;;;;;;12.50;92.80;;;;;;4977493;28;19921;-88
2022/01/03 08:18:34;;;;;;;;;;;12.50;93.00;;;;;;4984249;28;21002;-88
2022/01/03 08:21:01;;;;;;;;;;;12.50;92.50;;;;;;5006852;28;19925;-90
2022/01/03 08:23:30;;;;;;;;;;;12.50;93.10;;;;;;4961773;28;19929;-88
2022/01/03 08:25:57;;;;;;;;;;;12.50;93.10;;;;;;4977305;28;20567;-88
2022/01/03 08:28:24;;;;;;;;;;;12.50;92.90;;;;;;4972157;28;19923;-89
2022/01/03 08:30:51;;;;;;;;;;;12.50;93.10;;;;;;4998529;28;20371;-88
2022/01/03 08:33:18;;;;;;;;;;;12.50;93.10;;;;;;4991076;28;19913;-89
2022/01/03 08:35:44;;;;;;;;;;;12.50;93.30;;;;;;4963929;28;20039;-89
2022/01/03 08:38:11;;;;;;;;;;;12.50;93.50;;;;;;4990873;28;19913;-89
2022/01/03 08:40:39;;;;;;;;;;;12.60;92.90;;;;;;4990505;28;20125;-89
2022/01/03 08:43:06;;;;;;;;;;;12.50;93.30;;;;;;5000696;28;19924;-88
2022/01/03 08:45:34;;;;;;;;;;;12.50;93.10;;;;;;4979959;28;20107;-86
2022/01/03 08:48:01;;;;;;;;;;;12.50;93.60;;;;;;5010603;28;20248;-88
2022/01/03 08:50:28;;;;;;;;;;;12.60;93.00;;;;;;4975244;28;19913;-90
2022/01/03 08:52:54;;;;;;;;;;;12.60;93.40;;;;;;4988484;28;19931;-87
2022/01/03 08:55:21;;;;;;;;;;;12.60;93.70;;;;;;4984927;28;19913;-87
2022/01/03 08:57:51;;;;;;;;;;;12.60;93.30;;;;;;4974939;28;19913;-88
2022/01/03 09:00:19;;;;;;;;;;;12.60;92.70;;;;;;5005100;28;19935;-89
2022/01/03 09:02:46;;;;;;;;;;;12.60;92.90;;;;;;4998153;28;20273;-89
2022/01/03 09:05:13;;;;;;;;;;;12.60;92.90;;;;;;4996036;28;19917;-88
2022/01/03 09:07:40;;;;;;;;;;;12.70;93.10;;;;;;4998301;28;20397;-89
2022/01/03 09:10:07;;;;;;;;;;;12.70;93.30;;;;;;4987904;28;20279;-89
2022/01/03 09:12:34;;;;;;;;;;;12.70;92.40;;;;;;4971643;28;19916;-87
2022/01/03 09:15:02;;;;;;;;;;;12.70;93.00;;;;;;4984938;28;20134;-87
2022/01/03 09:17:28;;;;;;;;;;;12.70;92.10;;;;;;4977374;28;19913;-89
2022/01/03 09:19:55;;;;;;;;;;;12.80;92.80;;;;;;4992837;28;20100;-87
2022/01/03 09:22:29;;;;;;;;;;;12.80;92.70;;;;;;4991843;28;20385;-88
2022/01/03 09:30:14;;;;;;;;;;;12.80;92.90;;;;;;4983000;28;19919;-87
2022/01/03 09:32:41;;;;;;;;;;;12.80;92.80;;;;;;4985176;28;19917;-88
2022/01/03 09:35:08;;;;;;;;;;;12.90;92.50;;;;;;4990726;28;19928;-88
2022/01/03 09:37:35;;;;;;;;;;;12.90;92.50;;;;;;4993599;28;19914;-88
2022/01/03 09:40:04;;;;;;;;;;;12.90;92.90;;;;;;4993224;28;20096;-89
2022/01/03 09:42:31;;;;;;;;;;;12.90;93.10;;;;;;4978293;28;19928;-89
2022/01/03 09:45:02;;;;;;;;;;;13.00;93.10;;;;;;4997464;28;19922;-89
2022/01/03 09:47:30;;;;;;;;;;;13.00;92.40;;;;;;4979345;28;19920;-88
2022/01/03 09:49:58;;;;;;;;;;;13.00;93.20;;;;;;4961528;28;19913;-89
2022/01/03 09:52:25;;;;;;;;;;;13.00;92.30;;;;;;5005059;28;20318;-89
2022/01/03 09:54:54;;;;;;;;;;;13.10;92.80;;;;;;4984616;28;19920;-87
2022/01/03 09:57:21;;;;;;;;;;;13.20;92.30;;;;;;4971615;28;20495;-89
2022/01/03 09:59:48;;;;;;;;;;;13.10;93.00;;;;;;4976063;28;19924;-89
2022/01/03 10:02:16;;;;;;;;;;;13.10;92.80;;;;;;4978241;28;19924;-89
2022/01/03 10:04:43;;;;;;;;;;;13.20;92.80;;;;;;4996534;28;20410;-89
2022/01/03 10:07:11;;;;;;;;;;;13.20;92.90;;;;;;4992570;28;19913;-89
2022/01/03 10:09:39;;;;;;;;;;;13.20;92.80;;;;;;4984276;28;19913;-88
2022/01/03 10:12:09;;;;;;;;;;;13.10;93.00;;;;;;4982794;28;19920;-89
2022/01/03 10:14:35;;;;;;;;;;;13.10;92.30;;;;;;4967943;28;19952;-89
2022/01/03 10:17:02;;;;;;;;;;;13.10;93.10;;;;;;4967062;28;20674;-90
2022/01/03 10:19:29;;;;;;;;;;;13.10;92.20;;;;;;5005779;28;20018;-88
2022/01/03 10:21:56;;;;;;;;;;;13.10;92.20;;;;;;4994298;28;19920;-88
2022/01/03 10:24:35;;;;;;;;;;;13.10;92.70;;;;;;4994457;28;20110;-89
2022/01/03 10:27:02;;;;;;;;;;;13.10;93.10;;;;;;4977682;28;20408;-88
2022/01/03 10:29:31;;;;;;;;;;;13.10;92.70;;;;;;4970066;28;19913;-89
2022/01/03 10:31:59;;;;;;;;;;;13.10;92.80;;;;;;4998288;28;19917;-88
2022/01/03 10:34:27;;;;;;;;;;;13.00;92.90;;;;;;5002860;28;20314;-89
2022/01/03 10:36:56;;;;;;;;;;;13.00;92.50;;;;;;4979946;28;19914;-89
2022/01/03 10:39:28;;;;;;;;;;;12.90;92.40;;;;;;4987778;28;19913;-88
2022/01/03 10:42:11;;;;;;;;;;;12.90;92.80;;;;;;4970405;28;19918;-89
2022/01/03 10:44:40;;;;;;;;;;;12.90;93.30;;;;;;4964198;28;19916;-88
2022/01/03 10:47:08;;;;;;;;;;;12.80;92.40;;;;;;4988164;28;19931;-88
2022/01/03 10:49:37;;;;;;;;;;;12.80;92.60;;;;;;4971586;28;19913;-89
2022/01/03 10:52:13;;;;;;;;;;;12.70;93.00;;;;;;4969234;28;19913;-89
2022/01/03 10:54:40;;;;;;;;;;;12.70;92.80;;;;;;5008276;28;19913;-89
2022/01/03 10:57:07;;;;;;;;;;;12.70;93.20;;;;;;4966753;28;19928;-90
2022/01/03 10:59:36;;;;;;;;;;;12.70;93.10;;;;;;4976922;28;20275;-88
2022/01/03 11:02:04;;;;;;;;;;;12.60;93.10;;;;;;4986287;28;20310;-89
2022/01/03 11:04:53;;;;;;;;;;;12.60;93.30;;;;;;4984434;28;19914;-89
2022/01/03 11:13:15;;;;;;;;;;;12.50;93.50;;;;;;4972077;28;20204;-89
2022/01/03 11:15:49;;;;;;;;;;;12.50;93.50;;;;;;4976846;28;19919;-89
2022/01/03 11:18:20;;;;;;;;;;;12.40;93.70;;;;;;4998444;28;19920;-88
2022/01/03 11:21:01;;;;;;;;;;;12.40;93.90;;;;;;4973669;28;19947;-89
2022/01/03 11:23:28;;;;;;;;;;;12.40;93.90;;;;;;4989019;28;19918;-89
2022/01/03 11:25:55;;;;;;;;;;;12.40;93.90;;;;;;4990310;28;19918;-89
2022/01/03 11:28:25;;;;;;;;;;;12.40;94.10;;;;;;4979317;28;19920;-89
2022/01/03 11:30:52;;;;;;;;;;;12.40;94.30;;;;;;4967251;28;20980;-89
2022/01/03 11:33:19;;;;;;;;;;;12.40;94.20;;;;;;4977443;28;19910;-89
2022/01/03 11:35:48;;;;;;;;;;;12.40;94.10;;;;;;4982565;28;20201;-88
2022/01/03 11:38:20;;;;;;;;;;;12.50;94.10;;;;;;4989100;28;20417;-88
2022/01/03 11:40:47;;;;;;;;;;;12.50;93.80;;;;;;4989901;28;20118;-88
2022/01/03 11:43:14;;;;;;;;;;;12.50;94.00;;;;;;4989577;28;19920;-90
2022/01/03 11:45:42;;;;;;;;;;;12.60;94.10;;;;;;4967200;28;20378;-90
2022/01/03 11:48:10;;;;;;;;;;;12.60;93.50;;;;;;4990685;28;20404;-89
2022/01/03 11:50:38;;;;;;;;;;;12.60;93.80;;;;;;4975479;28;19920;-88
2022/01/03 11:53:06;;;;;;;;;;;12.70;93.90;;;;;;5002885;28;19921;-90
2022/01/03 11:55:37;;;;;;;;;;;12.70;93.90;;;;;;4978143;28;19914;-89
2022/01/03 12:06:04;;;;;;;;;;;12.60;93.30;;;;;;4981904;28;19925;-89
2022/01/03 12:08:35;;;;;;;;;;;12.60;93.50;;;;;;4995344;28;19913;-87
2022/01/03 12:11:22;;;;;;;;;;;12.60;93.60;;;;;;4977523;28;19921;-88
2022/01/03 12:13:51;;;;;;;;;;;12.50;93.30;;;;;;4995804;28;20078;-87
2022/01/03 12:16:18;;;;;;;;;;;12.50;93.30;;;;;;4999096;28;19923;-88
2022/01/03 12:18:59;;;;;;;;;;;12.40;93.50;;;;;;4986002;28;20130;-87
2022/01/03 12:21:58;;;;;;;;;;;12.40;93.50;;;;;;4999656;28;20382;-88
2022/01/03 12:24:28;;;;;;;;;;;12.30;93.60;;;;;;4965249;28;20381;-87
2022/01/03 12:27:13;;;;;;;;;;;12.30;93.80;;;;;;4987947;28;20220;-87
2022/01/03 12:29:58;;;;;;;;;;;12.30;93.80;;;;;;4974407;28;19920;-88
2022/01/03 12:32:25;;;;;;;;;;;12.20;93.80;;;;;;4994255;28;19924;-88
2022/01/03 12:35:10;;;;;;;;;;;12.20;93.90;;;;;;4984901;28;20395;-88
2022/01/03 12:37:38;;;;;;;;;;;12.20;94.00;;;;;;4986504;28;20420;-88
2022/01/03 12:40:05;;;;;;;;;;;12.10;94.20;;;;;;5013903;28;20326;-88
2022/01/03 12:42:58;;;;;;;;;;;12.10;94.10;;;;;;4983962;28;19913;-87
2022/01/03 12:45:25;;;;;;;;;;;12.10;94.10;;;;;;4995598;28;19921;-88
2022/01/03 12:47:52;;;;;;;;;;;12.10;94.20;;;;;;4980292;28;23753;-88
2022/01/03 12:50:29;;;;;;;;;;;12.00;94.10;;;;;;4990453;28;19920;-87
2022/01/03 12:52:58;;;;;;;;;;;12.00;94.10;;;;;;4984124;28;20111;-89
2022/01/03 12:55:37;;;;;;;;;;;12.00;94.20;;;;;;4980333;28;19913;-88
2022/01/03 12:58:04;;;;;;;;;;;12.00;94.10;;;;;;4993788;28;19914;-88
2022/01/03 13:00:38;;;;;;;;;;;11.90;94.10;;;;;;4994961;28;19914;-89
2022/01/03 13:03:20;;;;;;;;;;;11.90;94.10;;;;;;4996872;28;19986;-86
2022/01/03 13:06:05;;;;;;;;;;;11.90;94.20;;;;;;4984648;28;19913;-87
2022/01/03 13:08:33;;;;;;;;;;;11.90;94.10;;;;;;4986815;28;20493;-89
2022/01/03 13:11:00;;;;;;;;;;;11.90;94.20;;;;;;4995232;28;19913;-90
2022/01/03 13:13:28;;;;;;;;;;;11.80;94.30;;;;;;4983621;28;19928;-88
2022/01/03 13:15:58;;;;;;;;;;;11.80;94.60;;;;;;4981015;28;20100;-89
2022/01/03 13:18:25;;;;;;;;;;;11.80;94.20;;;;;;4985508;28;19913;-87
2022/01/03 13:20:58;;;;;;;;;;;11.80;94.40;;;;;;4988669;28;19913;-89
2022/01/03 13:23:25;;;;;;;;;;;11.80;94.50;;;;;;4982341;28;19920;-90
2022/01/03 13:26:02;;;;;;;;;;;11.80;94.30;;;;;;4972975;28;20189;-88
2022/01/03 13:28:29;;;;;;;;;;;11.80;94.90;;;;;;4967186;28;19921;-88
2022/01/03 13:30:59;;;;;;;;;;;11.70;94.60;;;;;;4979717;28;19914;-88
2022/01/03 13:33:26;;;;;;;;;;;11.70;94.50;;;;;;4991213;28;19920;-89
2022/01/03 13:36:00;;;;;;;;;;;11.70;94.60;;;;;;4995009;28;20040;-88
2022/01/03 13:38:27;;;;;;;;;;;11.70;94.50;;;;;;4980916;28;19914;-89
2022/01/03 13:40:54;;;;;;;;;;;11.70;94.70;;;;;;4989050;28;20173;-88
2022/01/03 13:43:28;;;;;;;;;;;11.70;94.70;;;;;;4970703;28;19914;-87
2022/01/03 13:51:09;;;;;;;;;;;11.70;94.70;;;;;;4969912;28;19920;-88
2022/01/03 13:53:47;;;;;;;;;;;11.70;94.80;;;;;;4993502;28;19917;-89
2022/01/03 13:56:14;;;;;;;;;;;11.70;94.60;;;;;;4985797;28;19939;-88
2022/01/03 13:58:43;;;;;;;;;;;11.60;94.50;;;;;;4978713;28;19917;-90
2022/01/03 14:01:10;;;;;;;;;;;11.60;94.40;;;;;;4999954;28;19916;-89
2022/01/03 14:03:39;;;;;;;;;;;11.60;94.50;;;;;;4977065;28;19928;-89
2022/01/03 14:06:16;;;;;;;;;;;11.60;94.50;;;;;;4982753;28;19914;-90
2022/01/03 14:08:45;;;;;;;;;;;11.60;94.60;;;;;;4992819;28;20014;-87
2022/01/03 14:11:13;;;;;;;;;;;11.60;94.60;;;;;;4996015;28;19920;-89
2022/01/03 14:13:40;;;;;;;;;;;11.60;94.60;;;;;;5003874;28;19914;-88
2022/01/03 14:16:11;;;;;;;;;;;11.60;94.80;;;;;;4992202;28;19919;-89
2022/01/03 14:18:37;;;;;;;;;;;11.60;94.60;;;;;;4990739;28;19940;-88
2022/01/03 14:21:31;;;;;;;;;;;11.50;94.60;;;;;;4990022;28;19914;-90
2022/01/03 14:23:59;;;;;;;;;;;11.60;94.70;;;;;;4988317;28;20228;-89
2022/01/03 14:26:27;;;;;;;;;;;11.60;94.70;;;;;;4995066;28;19920;-90
2022/01/03 14:28:59;;;;;;;;;;;11.60;94.80;;;;;;4990142;28;20573;-90
2022/01/03 14:31:45;;;;;;;;;;;11.50;94.70;;;;;;4991040;28;19923;-89
2022/01/03 14:34:29;;;;;;;;;;;11.60;94.70;;;;;;4987337;28;19914;-89
2022/01/03 14:36:57;;;;;;;;;;;11.50;94.60;;;;;;4984833;28;20152;-89
2022/01/03 14:39:24;;;;;;;;;;;11.50;94.70;;;;;;4993908;28;19924;-90
2022/01/03 14:42:04;;;;;;;;;;;11.50;94.70;;;;;;4960537;28;19948;-89
2022/01/03 14:44:32;;;;;;;;;;;11.50;94.80;;;;;;5011147;28;19910;-88
2022/01/03 14:47:11;;;;;;;;;;;11.50;94.80;;;;;;4968429;28;20211;-90
2022/01/03 14:49:53;;;;;;;;;;;11.60;94.90;;;;;;4996623;28;19922;-89
2022/01/03 14:52:31;;;;;;;;;;;11.60;94.90;;;;;;4985644;28;19922;-90
2022/01/03 14:54:58;;;;;;;;;;;11.50;95.00;;;;;;4984649;28;20385;-89
2022/01/03 14:57:29;;;;;;;;;;;11.60;95.00;;;;;;4998231;28;19913;-89
2022/01/03 14:59:57;;;;;;;;;;;11.60;95.00;;;;;;4983021;28;19922;-90